Terminal Aerodrome Forecast
Issued by NWS

Home | Current Version | Previous Version | Text Only | Print | Product List | Glossary On
Versions: 1 2 3 4 5 6 7 8 9 10 11 12 13 14 15 16 17 18 19 20 21 22 23 24
273
FTUS43 KDLH 140116 AAA
TAFBRD
TAF AMD
KBRD 140116Z 1401/1424 12006KT P6SM -RA VCSH OVC100
     FM140400 11004KT 3SM BR VCSH OVC025
     FM141300 06005KT P6SM BKN030 OVC070
     FM141800 07004KT P6SM BKN050=

USA.gov is the U.S. government's official web portal to all federal, state and local government web resources and services.